createdAt,value
2017-12-29T00:01:10.348Z,98254.31
2017-12-29T00:07:14.967Z,98255.96
2017-12-29T00:13:18.546Z,98255.78
2017-12-29T00:19:23.140Z,98271.31
2017-12-29T00:25:27.077Z,98270.28
2017-12-29T00:31:30.565Z,98262.44
2017-12-29T00:37:34.161Z,98266.02
2017-12-29T00:43:37.758Z,98286.37
2017-12-29T00:49:41.287Z,98297.52
2017-12-29T00:55:44.818Z,98300.70
2017-12-29T01:01:48.423Z,98304.12
2017-12-29T01:07:52.305Z,98308.16
2017-12-29T01:13:55.902Z,98310.98
2017-12-29T01:19:59.425Z,98313.73
2017-12-29T01:26:03.140Z,98326.39
2017-12-29T01:32:06.926Z,98320.20
2017-12-29T01:38:10.507Z,98326.51
2017-12-29T01:44:14.785Z,98324.70
2017-12-29T01:50:18.664Z,98329.77
2017-12-29T01:56:22.370Z,98338.52
2017-12-29T02:02:26.105Z,98342.06
2017-12-29T02:08:29.885Z,98341.66
2017-12-29T02:14:33.389Z,98351.31
2017-12-29T02:20:37.227Z,98351.71
2017-12-29T02:26:40.756Z,98349.06
2017-12-29T02:32:44.524Z,98356.17
2017-12-29T02:38:48.028Z,98364.20
2017-12-29T02:44:52.414Z,98367.08
2017-12-29T02:50:56.093Z,98371.30
2017-12-29T02:56:59.575Z,98376.17
2017-12-29T03:03:03.072Z,98375.84
2017-12-29T03:09:06.737Z,98376.80
2017-12-29T03:15:10.270Z,98377.43
2017-12-29T03:21:14.703Z,98372.05
2017-12-29T03:27:18.357Z,98367.27
2017-12-29T03:33:22.451Z,98370.73
2017-12-29T03:39:26.029Z,98384.81
2017-12-29T03:45:30.477Z,98386.81
2017-12-29T03:51:34.154Z,98393.84
2017-12-29T03:57:38.394Z,98393.95
2017-12-29T04:03:41.893Z,98401.89
2017-12-29T04:09:45.544Z,98397.25
2017-12-29T04:15:50.025Z,98397.27
2017-12-29T04:21:54.636Z,98394.59
2017-12-29T04:27:58.662Z,98391.53
2017-12-29T04:34:02.229Z,98404.84
2017-12-29T04:40:05.722Z,98406.63
2017-12-29T04:46:09.195Z,98411.77
2017-12-29T04:52:12.704Z,98425.63
2017-12-29T04:58:16.201Z,98422.81
2017-12-29T05:04:19.771Z,98418.20
2017-12-29T05:10:23.889Z,98420.58
2017-12-29T05:16:27.687Z,98422.22
2017-12-29T05:22:31.198Z,98421.90
2017-12-29T05:28:34.709Z,98427.36
2017-12-29T05:34:38.282Z,98433.62
2017-12-29T05:40:42.776Z,98439.17
2017-12-29T05:46:46.557Z,98447.75
2017-12-29T05:52:50.777Z,98449.98
2017-12-29T05:58:54.537Z,98455.59
2017-12-29T06:04:58.995Z,98464.11
2017-12-29T06:11:02.710Z,98472.69
2017-12-29T06:17:07.199Z,98466.58
2017-12-29T06:23:10.690Z,98471.69
2017-12-29T06:29:14.409Z,98475.66
2017-12-29T06:35:18.042Z,98473.27
2017-12-29T06:41:21.953Z,98477.33
2017-12-29T06:47:25.907Z,98482.71
2017-12-29T06:53:29.709Z,98496.58
2017-12-29T06:59:34.110Z,98492.44
2017-12-29T07:05:37.703Z,98494.26
2017-12-29T07:11:41.313Z,98501.88
2017-12-29T07:17:45.686Z,98508.57
2017-12-29T07:23:50.059Z,98513.86
2017-12-29T07:29:54.603Z,98523.03
2017-12-29T07:35:58.485Z,98535.94
2017-12-29T07:42:02.789Z,98529.64
2017-12-29T07:48:06.284Z,98535.20
2017-12-29T07:54:09.790Z,98546.42
2017-12-29T08:00:13.504Z,98549.32
2017-12-29T08:06:17.040Z,98555.76
2017-12-29T08:12:20.714Z,98560.22
2017-12-29T08:18:24.627Z,98566.09
2017-12-29T08:24:28.099Z,98569.22
2017-12-29T08:30:31.625Z,98567.34
2017-12-29T08:36:35.131Z,98571.38
2017-12-29T08:42:38.696Z,98558.16
2017-12-29T08:48:42.322Z,98567.51
2017-12-29T08:54:46.114Z,98557.57
2017-12-29T09:00:49.604Z,98574.41
2017-12-29T09:06:54.047Z,98570.80
2017-12-29T09:12:59.054Z,98577.00
2017-12-29T09:19:02.594Z,98586.50
2017-12-29T09:25:06.121Z,98592.52
2017-12-29T09:31:09.701Z,98596.27
2017-12-29T09:37:13.290Z,98601.73
2017-12-29T09:43:17.553Z,98589.64
2017-12-29T09:49:22.675Z,98586.02
2017-12-29T09:55:26.233Z,98572.39
2017-12-29T10:01:29.738Z,98565.64
2017-12-29T10:07:33.590Z,98549.62
2017-12-29T10:13:37.185Z,98549.45
2017-12-29T10:19:40.682Z,98537.35
2017-12-29T10:25:44.500Z,98531.56
2017-12-29T10:31:48.058Z,98535.30
2017-12-29T10:37:53.087Z,98522.06
2017-12-29T10:43:56.684Z,98524.80
2017-12-29T10:50:00.281Z,98519.83
2017-12-29T10:56:03.845Z,98508.34
2017-12-29T11:02:07.363Z,98502.42
2017-12-29T11:08:11.854Z,98495.20
2017-12-29T11:14:15.465Z,98497.36
2017-12-29T11:20:19.033Z,98499.86
2017-12-29T11:26:23.599Z,98504.83
2017-12-29T11:32:27.130Z,98501.44
2017-12-29T11:38:30.650Z,98487.99
2017-12-29T11:44:34.908Z,98473.70
2017-12-29T11:50:38.477Z,98479.00
2017-12-29T11:56:42.754Z,98470.67
2017-12-29T12:02:46.262Z,98454.59
2017-12-29T12:08:50.023Z,98438.09
2017-12-29T12:14:54.339Z,98427.72
2017-12-29T12:20:59.042Z,98432.29
2017-12-29T12:27:02.627Z,98429.81
2017-12-29T12:33:06.255Z,98417.41
2017-12-29T12:39:09.855Z,98412.52
2017-12-29T12:45:13.345Z,98406.52
2017-12-29T12:51:17.597Z,98415.95
2017-12-29T12:57:21.968Z,98403.99
2017-12-29T13:03:26.647Z,98400.73
2017-12-29T13:09:30.148Z,98381.73
2017-12-29T13:15:33.698Z,98371.77
2017-12-29T13:21:37.249Z,98360.31
2017-12-29T13:27:40.865Z,98350.27
2017-12-29T13:33:44.338Z,98334.88
2017-12-29T13:39:48.759Z,98330.46
2017-12-29T13:45:52.271Z,98320.72
2017-12-29T13:51:56.051Z,98320.05
2017-12-29T13:57:59.726Z,98329.33
2017-12-29T14:04:03.532Z,98328.51
2017-12-29T14:10:07.171Z,98326.52
2017-12-29T14:16:10.658Z,98309.29
2017-12-29T14:22:14.975Z,98305.06
2017-12-29T14:28:18.570Z,98306.39
2017-12-29T14:34:22.215Z,98273.69
2017-12-29T14:40:25.818Z,98263.22
2017-12-29T14:46:29.497Z,98245.02
2017-12-29T14:52:33.215Z,98226.28
2017-12-29T14:58:37.608Z,98227.48
2017-12-29T15:04:41.164Z,98205.25
2017-12-29T15:10:44.791Z,98193.01
2017-12-29T15:16:49.127Z,98187.69
2017-12-29T15:22:52.594Z,98172.77
2017-12-29T15:28:56.442Z,98151.75
2017-12-29T15:35:00.975Z,98144.06
2017-12-29T15:41:05.213Z,98137.25
2017-12-29T15:47:08.716Z,98120.71
2017-12-29T15:53:12.181Z,98118.24
2017-12-29T15:59:15.634Z,98114.57
2017-12-29T16:05:19.193Z,98100.41
2017-12-29T16:11:22.909Z,98075.80
2017-12-29T16:17:28.012Z,98063.80
2017-12-29T16:23:31.555Z,98061.75
2017-12-29T16:29:35.084Z,98054.88
2017-12-29T16:35:38.564Z,98051.78
2017-12-29T16:41:42.036Z,98049.59
2017-12-29T16:47:45.562Z,98049.55
2017-12-29T16:53:51.183Z,98037.27
2017-12-29T16:59:55.090Z,98017.91
2017-12-29T17:05:58.781Z,98010.31
2017-12-29T17:12:02.381Z,97999.64
2017-12-29T17:18:06.227Z,97986.33
2017-12-29T17:24:10.610Z,97982.05
2017-12-29T17:30:14.215Z,97981.67
2017-12-29T17:36:17.840Z,97974.58
2017-12-29T17:42:22.189Z,97969.65
2017-12-29T17:48:25.704Z,97961.31
2017-12-29T17:54:29.333Z,97951.23
2017-12-29T18:00:32.893Z,97948.53
2017-12-29T18:06:37.395Z,97947.90
2017-12-29T18:12:41.203Z,97944.66
2017-12-29T18:18:45.473Z,97945.98
2017-12-29T18:24:49.886Z,97939.47
2017-12-29T18:30:53.849Z,97936.06
2017-12-29T18:36:57.478Z,97923.64
2017-12-29T18:43:00.993Z,97916.27
2017-12-29T18:49:04.639Z,97906.53
2017-12-29T18:55:08.131Z,97900.56
2017-12-29T19:01:11.659Z,97880.86
2017-12-29T19:07:15.424Z,97889.16
2017-12-29T19:13:19.067Z,97888.50
2017-12-29T19:19:24.039Z,97900.49
2017-12-29T19:25:28.317Z,97900.59
2017-12-29T19:31:32.085Z,97901.89
2017-12-29T19:37:35.743Z,97915.52
2017-12-29T19:43:40.097Z,97909.20
2017-12-29T19:49:43.603Z,97896.65
2017-12-29T19:55:48.248Z,97891.73
2017-12-29T20:01:52.512Z,97899.00
2017-12-29T20:07:56.320Z,97900.77
2017-12-29T20:14:00.628Z,97912.80
2017-12-29T20:20:04.147Z,97911.69
2017-12-29T20:26:08.447Z,97912.57
2017-12-29T20:32:11.959Z,97914.41
2017-12-29T20:38:15.476Z,97914.91
2017-12-29T20:44:18.982Z,97915.56
2017-12-29T20:50:23.288Z,97927.59
2017-12-29T20:56:26.746Z,97923.03
2017-12-29T21:02:30.342Z,97916.61
2017-12-29T21:08:34.622Z,97917.25
2017-12-29T21:14:38.108Z,97924.00
2017-12-29T21:20:41.587Z,97919.75
2017-12-29T21:26:45.105Z,97929.34
2017-12-29T21:32:49.382Z,97935.76
2017-12-29T21:38:53.816Z,97946.58
2017-12-29T21:44:57.651Z,97948.55
2017-12-29T21:51:01.266Z,97958.05
2017-12-29T21:57:05.578Z,97959.39
2017-12-29T22:03:09.093Z,97968.90
2017-12-29T22:09:13.449Z,97983.47
2017-12-29T22:15:16.925Z,97974.34
2017-12-29T22:21:22.000Z,97976.89
2017-12-29T22:27:26.528Z,97986.98
2017-12-29T22:33:30.295Z,97987.98
2017-12-29T22:39:33.776Z,97998.02
2017-12-29T22:45:37.449Z,97996.37
2017-12-29T22:51:40.945Z,98012.64
2017-12-29T22:57:44.600Z,98017.70
2017-12-29T23:03:48.196Z,98037.60
2017-12-29T23:09:52.417Z,98028.39
2017-12-29T23:15:56.041Z,98020.17
2017-12-29T23:22:00.340Z,98034.78
2017-12-29T23:28:03.959Z,98049.13
2017-12-29T23:34:07.548Z,98053.75
2017-12-29T23:40:12.006Z,98059.02
2017-12-29T23:46:16.288Z,98065.03
2017-12-29T23:52:20.940Z,98087.37
2017-12-29T23:58:25.207Z,98089.61
